createdAt,value
2019-01-28T00:01:53.308Z,16.73
2019-01-28T00:04:20.425Z,9.73
2019-01-28T00:06:47.542Z,11.27
2019-01-28T00:09:14.583Z,11.57
2019-01-28T00:11:42.706Z,7.90
2019-01-28T00:14:09.741Z,6.83
2019-01-28T00:16:36.807Z,4.93
2019-01-28T00:19:03.991Z,9.00
2019-01-28T00:21:31.034Z,7.47
2019-01-28T00:23:58.160Z,6.50
2019-01-28T00:26:25.330Z,12.07
2019-01-28T00:28:52.367Z,9.73
2019-01-28T00:31:19.553Z,8.63
2019-01-28T00:33:46.641Z,9.20
2019-01-28T00:36:13.741Z,7.63
2019-01-28T00:38:40.806Z,4.57
2019-01-28T00:41:08.079Z,10.37
2019-01-28T00:43:35.161Z,9.80
2019-01-28T00:46:02.242Z,5.47
2019-01-28T00:48:29.289Z,9.17
2019-01-28T00:50:56.378Z,7.93
2019-01-28T00:53:23.408Z,9.63
2019-01-28T00:55:50.488Z,8.60
2019-01-28T00:58:17.844Z,7.53
2019-01-28T01:00:44.927Z,10.03
2019-01-28T01:03:11.996Z,5.10
2019-01-28T01:05:39.372Z,6.13
2019-01-28T01:08:06.423Z,8.37
2019-01-28T01:10:34.622Z,6.47
2019-01-28T01:13:01.697Z,3.97
2019-01-28T01:15:28.733Z,4.47
2019-01-28T01:17:55.980Z,7.23
2019-01-28T01:20:23.280Z,5.57
2019-01-28T01:22:53.107Z,4.03
2019-01-28T01:25:20.131Z,3.47
2019-01-28T01:27:49.023Z,5.30
2019-01-28T01:30:16.683Z,7.93
2019-01-28T01:32:43.717Z,3.13
2019-01-28T01:35:11.177Z,6.00
2019-01-28T01:37:38.336Z,7.17
2019-01-28T01:40:07.579Z,5.33
2019-01-28T01:42:34.651Z,3.20
2019-01-28T01:45:01.712Z,4.70
2019-01-28T01:47:28.761Z,3.17
2019-01-28T01:49:55.837Z,3.60
2019-01-28T01:52:22.875Z,5.80
2019-01-28T01:54:49.946Z,7.37
2019-01-28T01:57:17.091Z,2.43
2019-01-28T01:59:44.187Z,5.27
2019-01-28T02:02:11.501Z,3.83
2019-01-28T02:04:38.597Z,7.87
2019-01-28T02:07:05.639Z,3.70
2019-01-28T02:09:32.662Z,4.93
2019-01-28T02:11:59.758Z,5.10
2019-01-28T02:14:26.806Z,4.60
2019-01-28T02:16:53.864Z,4.70
2019-01-28T02:19:20.955Z,3.03
2019-01-28T02:21:48.061Z,4.30
2019-01-28T02:24:15.146Z,4.37
2019-01-28T02:26:42.223Z,4.20
2019-01-28T02:29:09.251Z,5.40
2019-01-28T02:31:36.367Z,3.73
2019-01-28T02:34:03.756Z,5.33
2019-01-28T02:36:30.821Z,3.67
2019-01-28T02:38:57.850Z,5.50
2019-01-28T02:41:24.926Z,4.27
2019-01-28T02:43:51.968Z,3.80
2019-01-28T02:46:19.070Z,5.57
2019-01-28T02:48:47.954Z,5.20
2019-01-28T02:51:15.000Z,4.97
2019-01-28T02:53:42.059Z,4.50
2019-01-28T02:56:09.137Z,7.33
2019-01-28T02:58:36.188Z,5.07
2019-01-28T03:01:03.588Z,5.87
2019-01-28T03:03:30.714Z,3.93
2019-01-28T03:05:57.775Z,7.10
2019-01-28T03:08:24.837Z,5.20
2019-01-28T03:10:51.924Z,6.77
2019-01-28T03:13:18.977Z,4.20
2019-01-28T03:15:46.028Z,7.47
2019-01-28T03:18:13.218Z,6.10
2019-01-28T03:20:40.300Z,4.30
2019-01-28T03:23:10.061Z,4.67
2019-01-28T03:25:39.372Z,5.37
2019-01-28T03:28:06.408Z,5.20
2019-01-28T03:30:33.471Z,5.97
2019-01-28T03:33:00.722Z,6.00
2019-01-28T03:35:27.770Z,7.33
2019-01-28T03:37:54.806Z,5.57
2019-01-28T03:40:21.864Z,7.40
2019-01-28T03:42:49.492Z,5.13
2019-01-28T03:45:17.897Z,6.73
2019-01-28T03:47:45.089Z,8.87
2019-01-28T03:50:13.820Z,8.30
2019-01-28T03:52:41.100Z,7.90
2019-01-28T03:55:08.944Z,6.70
2019-01-28T03:57:35.977Z,7.23
2019-01-28T04:00:05.539Z,10.97
2019-01-28T04:02:32.714Z,6.00
2019-01-28T04:04:59.773Z,7.57
2019-01-28T04:07:59.536Z,9.40
2019-01-28T04:10:26.582Z,9.77
2019-01-28T04:12:53.605Z,6.70
2019-01-28T04:15:22.920Z,7.33
2019-01-28T04:17:50.113Z,9.57
2019-01-28T04:20:18.119Z,11.73
2019-01-28T04:22:45.222Z,9.97
2019-01-28T04:25:13.113Z,8.93
2019-01-28T04:28:17.418Z,7.33
2019-01-28T04:30:44.485Z,9.70
2019-01-28T04:33:11.725Z,7.60
2019-01-28T04:35:38.837Z,6.67
2019-01-28T04:38:05.920Z,8.57
2019-01-28T04:40:32.961Z,8.10
2019-01-28T04:43:00.023Z,7.80
2019-01-28T04:45:27.068Z,6.37
2019-01-28T04:47:54.434Z,10.47
2019-01-28T04:50:21.591Z,7.70
2019-01-28T04:52:49.027Z,5.73
2019-01-28T04:55:17.486Z,6.13
2019-01-28T04:57:44.662Z,6.47
2019-01-28T05:00:22.746Z,6.20
2019-01-28T05:05:31.317Z,4.43
2019-01-28T05:07:58.354Z,5.73
2019-01-28T05:10:25.395Z,6.83
2019-01-28T05:12:52.542Z,10.07
2019-01-28T05:15:20.399Z,7.13
2019-01-28T05:17:47.463Z,6.03
2019-01-28T05:20:16.087Z,8.87
2019-01-28T05:22:43.127Z,5.27
2019-01-28T05:25:11.510Z,7.20
2019-01-28T05:27:38.678Z,6.60
2019-01-28T05:30:08.524Z,7.73
2019-01-28T05:32:35.579Z,6.67
2019-01-28T05:35:03.417Z,9.17
2019-01-28T05:37:30.536Z,7.97
2019-01-28T05:39:57.675Z,6.63
2019-01-28T05:42:24.735Z,6.33
2019-01-28T05:44:51.914Z,6.50
2019-01-28T05:47:18.985Z,9.00
2019-01-28T05:49:46.084Z,4.50
2019-01-28T05:52:13.376Z,4.13
2019-01-28T05:54:40.463Z,4.70
2019-01-28T05:57:08.680Z,5.10
2019-01-28T05:59:42.500Z,3.60
2019-01-28T06:02:09.592Z,5.70
2019-01-28T06:04:36.735Z,3.10
2019-01-28T06:07:03.975Z,5.00
2019-01-28T06:09:31.030Z,8.37
2019-01-28T06:11:58.313Z,7.67
2019-01-28T06:14:51.149Z,13.67
2019-01-28T06:17:18.412Z,8.47
2019-01-28T06:19:45.480Z,7.47
2019-01-28T06:22:12.588Z,8.57
2019-01-28T06:24:39.716Z,9.27
2019-01-28T06:27:06.725Z,10.23
2019-01-28T06:29:33.835Z,8.47
2019-01-28T06:32:02.804Z,12.27
2019-01-28T06:34:29.961Z,14.60
2019-01-28T06:36:57.231Z,8.07
2019-01-28T06:39:24.282Z,9.50
2019-01-28T06:41:51.330Z,11.80
2019-01-28T06:44:18.435Z,11.67
2019-01-28T06:46:45.535Z,10.53
2019-01-28T06:49:12.649Z,9.47
2019-01-28T06:51:39.725Z,9.23
2019-01-28T06:54:06.991Z,12.00
2019-01-28T06:56:34.063Z,15.87
2019-01-28T06:59:01.190Z,15.60
2019-01-28T07:01:28.273Z,11.00
2019-01-28T07:03:55.393Z,12.80
2019-01-28T07:06:22.547Z,12.90
2019-01-28T07:08:49.655Z,14.70
2019-01-28T07:11:18.299Z,16.47
2019-01-28T07:13:45.379Z,15.27
2019-01-28T07:16:12.501Z,14.43
2019-01-28T07:18:39.574Z,16.93
2019-01-28T07:21:06.669Z,16.10
2019-01-28T07:23:33.796Z,14.97
2019-01-28T07:26:00.836Z,12.17
2019-01-28T07:28:27.881Z,16.60
2019-01-28T07:30:54.997Z,20.17
2019-01-28T07:33:22.058Z,20.67
2019-01-28T07:35:50.210Z,23.63
2019-01-28T07:38:17.306Z,14.53
2019-01-28T07:40:44.345Z,15.70
2019-01-28T07:43:11.435Z,17.17
2019-01-28T07:45:45.001Z,13.70
2019-01-28T07:48:07.592Z,11.80
2019-01-28T07:50:34.794Z,13.53
2019-01-28T07:53:02.037Z,15.90
2019-01-28T07:55:30.338Z,17.00
2019-01-28T07:57:57.412Z,14.20
2019-01-28T08:00:25.784Z,8.00
2019-01-28T08:02:52.970Z,13.97
2019-01-28T08:05:20.229Z,11.13
2019-01-28T08:07:47.352Z,12.03
2019-01-28T08:10:15.629Z,16.77
2019-01-28T08:12:42.972Z,11.00
2019-01-28T08:15:12.581Z,15.03
2019-01-28T08:17:39.633Z,14.13
2019-01-28T08:20:11.536Z,17.20
2019-01-28T08:22:39.897Z,13.97
2019-01-28T08:25:08.953Z,12.97
2019-01-28T08:27:36.109Z,7.20
2019-01-28T08:30:05.329Z,7.97
2019-01-28T08:32:32.396Z,5.80
2019-01-28T08:34:59.424Z,7.70
2019-01-28T08:37:26.505Z,6.70
2019-01-28T08:39:53.555Z,5.77
2019-01-28T08:42:20.602Z,6.73
2019-01-28T08:44:47.656Z,6.67
2019-01-28T08:47:14.772Z,6.40
2019-01-28T08:49:41.815Z,6.53
2019-01-28T08:52:08.904Z,4.60
2019-01-28T08:54:36.037Z,11.87
2019-01-28T08:59:44.761Z,9.27
2019-01-28T09:02:11.812Z,5.43
2019-01-28T09:04:40.067Z,5.20
2019-01-28T09:07:07.179Z,2.33
2019-01-28T09:09:34.298Z,3.97
2019-01-28T09:12:01.354Z,7.93
2019-01-28T09:14:28.441Z,7.27
2019-01-28T09:16:55.581Z,5.33
2019-01-28T09:19:22.817Z,3.17
2019-01-28T09:21:50.043Z,6.00
2019-01-28T09:24:17.135Z,4.97
2019-01-28T09:26:44.247Z,5.90
2019-01-28T09:29:11.332Z,5.03
2019-01-28T09:31:38.390Z,5.53
2019-01-28T09:34:05.532Z,10.30
2019-01-28T09:36:32.621Z,10.23
2019-01-28T09:38:59.674Z,11.43
2019-01-28T09:41:26.793Z,12.80
2019-01-28T09:43:53.894Z,11.63
2019-01-28T09:46:21.020Z,9.40
2019-01-28T09:48:48.162Z,13.80
2019-01-28T09:51:15.333Z,13.17
2019-01-28T09:53:42.426Z,9.57
2019-01-28T09:56:09.658Z,13.70
2019-01-28T09:58:36.810Z,13.23
2019-01-28T10:01:04.168Z,9.80
2019-01-28T10:03:31.272Z,17.73
2019-01-28T10:05:58.305Z,8.90
2019-01-28T10:08:25.347Z,11.87
2019-01-28T10:10:52.615Z,9.17
2019-01-28T10:13:19.699Z,19.50
2019-01-28T10:15:46.772Z,12.57
2019-01-28T10:18:13.869Z,6.43
2019-01-28T10:20:44.724Z,14.23
2019-01-28T10:23:12.112Z,13.90
2019-01-28T10:25:40.049Z,21.17
2019-01-28T10:28:07.162Z,6.90
2019-01-28T10:30:36.449Z,12.63
2019-01-28T10:33:04.949Z,11.17
2019-01-28T10:35:32.325Z,12.50
2019-01-28T10:37:59.678Z,7.37
2019-01-28T10:40:29.078Z,10.33
2019-01-28T10:42:56.528Z,6.63
2019-01-28T10:45:23.682Z,10.23
2019-01-28T10:47:51.521Z,11.47
2019-01-28T10:50:19.045Z,13.83
2019-01-28T10:52:46.096Z,11.70
2019-01-28T10:55:14.096Z,14.63
2019-01-28T10:57:41.425Z,9.73
2019-01-28T11:00:19.256Z,13.90
2019-01-28T11:02:46.440Z,12.43
2019-01-28T11:05:13.720Z,11.83
2019-01-28T11:07:40.887Z,8.23
2019-01-28T11:10:09.570Z,11.70
2019-01-28T11:12:36.651Z,14.07
2019-01-28T11:15:05.092Z,13.47
2019-01-28T11:17:32.133Z,12.83
2019-01-28T11:19:59.257Z,14.10
2019-01-28T11:22:26.457Z,10.77
2019-01-28T11:24:53.598Z,9.37
2019-01-28T11:27:20.612Z,11.87
2019-01-28T11:29:47.697Z,13.10
2019-01-28T11:32:14.800Z,12.27
2019-01-28T11:34:41.930Z,9.83
2019-01-28T11:37:09.077Z,8.93
2019-01-28T11:39:36.203Z,11.47
2019-01-28T11:42:03.836Z,16.93
2019-01-28T11:44:32.194Z,12.53
2019-01-28T11:47:00.567Z,11.47
2019-01-28T11:49:27.709Z,11.57
2019-01-28T11:51:54.862Z,14.90
2019-01-28T11:54:21.942Z,12.80
2019-01-28T11:56:50.825Z,11.37
2019-01-28T11:59:17.927Z,5.10
2019-01-28T12:01:46.138Z,10.00
2019-01-28T12:04:13.268Z,6.77
2019-01-28T12:06:40.358Z,9.47
2019-01-28T12:09:08.865Z,12.23
2019-01-28T12:11:36.039Z,8.57
2019-01-28T12:14:03.581Z,8.13
2019-01-28T12:16:30.625Z,11.13
2019-01-28T12:18:59.354Z,9.40
2019-01-28T12:21:26.607Z,9.20
2019-01-28T12:23:53.691Z,9.90
2019-01-28T12:26:20.761Z,11.87
2019-01-28T12:28:47.940Z,6.87
2019-01-28T12:31:14.996Z,12.53
2019-01-28T12:33:42.142Z,7.13
2019-01-28T12:36:09.213Z,6.77
2019-01-28T12:38:36.262Z,5.47
2019-01-28T12:41:03.571Z,8.17
2019-01-28T12:43:30.624Z,10.80
2019-01-28T12:45:57.782Z,10.97
2019-01-28T12:48:24.902Z,8.57
2019-01-28T12:50:51.968Z,8.43
2019-01-28T12:53:19.080Z,11.00
2019-01-28T12:55:46.145Z,8.87
2019-01-28T12:58:13.192Z,7.90
2019-01-28T13:00:42.796Z,13.63
2019-01-28T13:03:10.814Z,14.10
2019-01-28T13:05:38.596Z,12.40
2019-01-28T13:08:05.688Z,10.40
2019-01-28T13:10:32.891Z,23.50
2019-01-28T13:12:59.932Z,14.07
2019-01-28T13:15:27.488Z,16.97
2019-01-28T13:17:55.466Z,13.70
2019-01-28T13:20:22.894Z,11.87
2019-01-28T13:22:50.111Z,15.87
2019-01-28T13:25:18.409Z,13.23
2019-01-28T13:27:45.520Z,12.43
2019-01-28T13:30:15.614Z,11.90
2019-01-28T13:32:43.022Z,14.33
2019-01-28T13:35:10.612Z,16.77
2019-01-28T13:37:37.685Z,16.40
2019-01-28T13:40:05.179Z,18.43
2019-01-28T13:42:32.383Z,12.43
2019-01-28T13:44:59.468Z,11.33
2019-01-28T13:47:26.564Z,18.60
2019-01-28T13:49:53.705Z,11.80
2019-01-28T13:52:20.772Z,12.50
2019-01-28T13:54:48.322Z,11.53
2019-01-28T13:57:15.359Z,10.83
2019-01-28T13:59:42.467Z,16.53
2019-01-28T14:02:09.822Z,13.10
2019-01-28T14:04:36.916Z,18.33
2019-01-28T14:07:04.081Z,15.03
2019-01-28T14:09:31.177Z,17.13
2019-01-28T14:11:58.241Z,19.77
2019-01-28T14:14:25.339Z,15.97
2019-01-28T14:16:52.438Z,12.33
2019-01-28T14:19:19.495Z,15.00
2019-01-28T14:21:46.601Z,23.10
2019-01-28T14:24:13.773Z,15.30
2019-01-28T14:26:40.876Z,12.97
2019-01-28T14:29:07.950Z,15.17
2019-01-28T14:31:36.191Z,15.43
2019-01-28T14:34:03.458Z,10.50
2019-01-28T14:36:42.759Z,13.87
2019-01-28T14:39:13.740Z,11.77
2019-01-28T14:41:40.080Z,13.87
2019-01-28T14:44:07.162Z,15.00
2019-01-28T14:46:34.265Z,12.40
2019-01-28T14:49:01.342Z,12.23
2019-01-28T14:51:28.464Z,11.07
2019-01-28T14:53:56.046Z,21.00
2019-01-28T14:56:23.099Z,11.47
2019-01-28T14:58:50.197Z,7.90
2019-01-28T15:01:19.178Z,12.53
2019-01-28T15:03:46.240Z,10.83
2019-01-28T15:06:13.466Z,11.27
2019-01-28T15:08:40.612Z,13.70
2019-01-28T15:11:07.673Z,13.33
2019-01-28T15:13:34.735Z,15.70
2019-01-28T15:16:01.828Z,12.17
2019-01-28T15:18:28.878Z,12.37
2019-01-28T15:20:55.929Z,15.17
2019-01-28T15:23:23.224Z,14.07
2019-01-28T15:26:09.078Z,11.40
2019-01-28T15:28:38.070Z,14.37
2019-01-28T15:31:06.160Z,12.90
2019-01-28T15:33:33.313Z,11.07
2019-01-28T15:36:00.413Z,10.47
2019-01-28T15:38:27.678Z,13.27
2019-01-28T15:40:54.749Z,15.90
2019-01-28T15:43:21.932Z,10.90
2019-01-28T15:45:48.983Z,8.10
2019-01-28T15:48:16.106Z,11.03
2019-01-28T15:50:43.319Z,14.67
2019-01-28T15:53:10.371Z,10.97
2019-01-28T15:55:39.649Z,11.07
2019-01-28T15:58:07.614Z,8.00
2019-01-28T16:00:37.047Z,13.47
2019-01-28T16:03:06.211Z,11.53
2019-01-28T16:05:33.274Z,9.67
2019-01-28T16:08:00.365Z,12.63
2019-01-28T16:10:27.649Z,12.67
2019-01-28T16:12:54.870Z,6.67
2019-01-28T16:15:25.331Z,9.80
2019-01-28T16:17:52.420Z,13.57
2019-01-28T16:20:19.502Z,12.17
2019-01-28T16:22:46.913Z,8.00
2019-01-28T16:25:14.275Z,10.37
2019-01-28T16:27:41.337Z,10.10
2019-01-28T16:30:12.469Z,10.40
2019-01-28T16:32:39.561Z,9.93
2019-01-28T16:35:07.182Z,9.43
2019-01-28T16:37:34.620Z,11.97
2019-01-28T16:40:01.680Z,19.20
2019-01-28T16:42:28.736Z,8.33
2019-01-28T16:44:55.897Z,11.47
2019-01-28T16:47:22.952Z,8.07
2019-01-28T16:49:50.044Z,10.13
2019-01-28T16:52:17.137Z,12.13
2019-01-28T16:54:44.263Z,7.77
2019-01-28T16:57:11.434Z,5.23
2019-01-28T16:59:38.552Z,10.13
2019-01-28T17:02:07.486Z,12.50
2019-01-28T17:04:34.542Z,9.07
2019-01-28T17:07:02.625Z,6.50
2019-01-28T17:09:29.910Z,9.20
2019-01-28T17:11:56.966Z,3.00
2019-01-28T17:14:24.115Z,10.53
2019-01-28T17:16:51.185Z,9.70
2019-01-28T17:19:18.253Z,5.10
2019-01-28T17:21:45.474Z,8.80
2019-01-28T17:24:12.682Z,8.53
2019-01-28T17:26:39.713Z,4.70
2019-01-28T17:29:06.781Z,8.57
2019-01-28T17:31:34.077Z,9.03
2019-01-28T17:34:01.344Z,5.93
2019-01-28T17:36:28.434Z,8.97
2019-01-28T17:39:50.926Z,7.90
2019-01-28T17:42:18.037Z,10.67
2019-01-28T17:44:45.121Z,6.03
2019-01-28T17:47:12.257Z,10.90
2019-01-28T17:49:40.377Z,6.53
2019-01-28T17:52:07.825Z,12.53
2019-01-28T17:54:36.027Z,5.10
2019-01-28T17:57:03.147Z,19.53
2019-01-28T17:59:30.236Z,10.53
2019-01-28T18:01:57.342Z,8.07
2019-01-28T18:04:25.796Z,6.53
2019-01-28T18:07:05.375Z,12.30
2019-01-28T18:09:35.140Z,14.80
2019-01-28T18:12:02.402Z,10.33
2019-01-28T18:14:29.559Z,5.53
2019-01-28T18:16:56.695Z,10.13
2019-01-28T18:19:23.865Z,7.50
2019-01-28T18:21:50.941Z,10.63
2019-01-28T18:24:18.051Z,9.10
2019-01-28T18:26:45.261Z,8.47
2019-01-28T18:29:12.359Z,7.07
2019-01-28T18:31:39.421Z,8.20
2019-01-28T18:34:06.862Z,7.97
2019-01-28T18:36:33.956Z,9.13
2019-01-28T18:39:01.158Z,8.63
2019-01-28T18:41:28.261Z,8.07
2019-01-28T18:43:55.376Z,11.50
2019-01-28T18:46:22.451Z,11.33
2019-01-28T18:49:08.296Z,11.03
2019-01-28T18:51:35.362Z,9.03
2019-01-28T18:54:02.433Z,10.60
2019-01-28T18:56:29.690Z,9.37
2019-01-28T18:58:56.778Z,16.53
2019-01-28T19:01:23.860Z,11.57
2019-01-28T19:03:52.108Z,12.40
2019-01-28T19:06:39.838Z,13.03
2019-01-28T19:09:12.854Z,7.17
2019-01-28T19:12:05.567Z,8.77
2019-01-28T19:14:54.971Z,9.63
2019-01-28T19:17:36.621Z,8.03
2019-01-28T19:20:27.745Z,12.70
2019-01-28T19:22:54.832Z,23.30
2019-01-28T19:25:21.900Z,11.60
2019-01-28T19:27:48.951Z,13.03
2019-01-28T19:30:19.500Z,15.23
2019-01-28T19:32:46.707Z,15.07
2019-01-28T19:35:13.892Z,17.27
2019-01-28T19:37:41.124Z,13.70
2019-01-28T19:40:09.938Z,10.90
2019-01-28T19:42:37.217Z,13.47
2019-01-28T19:45:07.660Z,7.13
2019-01-28T19:47:34.721Z,14.17
2019-01-28T19:50:01.775Z,6.40
2019-01-28T19:52:28.900Z,19.40
2019-01-28T19:54:55.986Z,9.63
2019-01-28T19:57:23.059Z,12.53
2019-01-28T19:59:50.171Z,19.93
2019-01-28T20:02:54.990Z,17.77
2019-01-28T20:05:22.288Z,17.03
2019-01-28T20:07:49.363Z,11.70
2019-01-28T20:10:16.451Z,19.17
2019-01-28T20:12:43.617Z,13.93
2019-01-28T20:15:12.384Z,13.40
2019-01-28T20:17:39.438Z,11.83
2019-01-28T20:20:08.587Z,18.27
2019-01-28T20:22:35.718Z,18.40
2019-01-28T20:25:07.934Z,16.57
2019-01-28T20:27:35.146Z,10.87
2019-01-28T20:30:03.439Z,20.50
2019-01-28T20:32:32.333Z,22.07
2019-01-28T20:34:59.642Z,17.17
2019-01-28T20:37:28.537Z,19.17
2019-01-28T20:39:55.649Z,17.07
2019-01-28T20:42:22.773Z,15.80
2019-01-28T20:44:50.051Z,14.27
2019-01-28T20:47:17.177Z,8.73
2019-01-28T20:49:44.255Z,14.40
2019-01-28T20:52:11.489Z,15.13
2019-01-28T20:54:38.687Z,17.97
2019-01-28T20:57:06.145Z,22.70
2019-01-28T20:59:33.221Z,15.17
2019-01-28T21:02:00.452Z,19.60
2019-01-28T21:04:27.591Z,12.63
2019-01-28T21:06:54.852Z,14.50
2019-01-28T21:09:21.924Z,19.97
2019-01-28T21:11:49.125Z,13.57
2019-01-28T21:14:16.195Z,19.93
2019-01-28T21:16:43.294Z,16.93
2019-01-28T21:19:10.476Z,13.00
2019-01-28T21:21:42.068Z,14.80
2019-01-28T21:24:06.688Z,17.97
2019-01-28T21:26:33.787Z,15.53
2019-01-28T21:29:19.174Z,14.70
2019-01-28T21:31:46.404Z,14.87
2019-01-28T21:34:13.517Z,14.10
2019-01-28T21:36:45.809Z,13.77
2019-01-28T21:39:14.507Z,19.23
2019-01-28T21:41:41.623Z,17.23
2019-01-28T21:44:08.706Z,11.80
2019-01-28T21:46:35.823Z,16.33
2019-01-28T21:49:03.159Z,9.43
2019-01-28T21:51:30.241Z,17.37
2019-01-28T21:53:57.325Z,12.07
2019-01-28T21:56:24.488Z,10.37
2019-01-28T21:58:51.555Z,14.63
2019-01-28T22:01:18.700Z,11.50
2019-01-28T22:03:45.920Z,15.07
2019-01-28T22:06:14.600Z,15.63
2019-01-28T22:08:42.193Z,10.20
2019-01-28T22:11:09.316Z,12.53
2019-01-28T22:13:36.395Z,24.90
2019-01-28T22:16:04.218Z,15.73
2019-01-28T22:18:31.362Z,15.57
2019-01-28T22:20:58.609Z,9.47
2019-01-28T22:23:25.701Z,15.43
2019-01-28T22:26:11.407Z,15.23
2019-01-28T22:28:38.610Z,17.23
2019-01-28T22:31:05.651Z,18.43
2019-01-28T22:33:32.744Z,15.77
2019-01-28T22:35:59.835Z,11.50
2019-01-28T22:38:26.889Z,19.23
2019-01-28T22:40:53.990Z,22.43
2019-01-28T22:43:21.137Z,21.90
2019-01-28T22:45:48.311Z,20.77
2019-01-28T22:48:16.138Z,18.53
2019-01-28T22:50:43.212Z,16.13
2019-01-28T22:53:10.284Z,16.60
2019-01-28T22:55:37.370Z,17.30
2019-01-28T22:58:04.422Z,20.77
2019-01-28T23:00:49.341Z,16.03
2019-01-28T23:03:17.980Z,15.47
2019-01-28T23:05:45.163Z,16.27
2019-01-28T23:08:12.396Z,20.83
2019-01-28T23:10:39.589Z,23.93
2019-01-28T23:13:06.990Z,21.50
2019-01-28T23:15:34.073Z,13.63
2019-01-28T23:18:01.146Z,19.00
2019-01-28T23:20:28.308Z,10.90
2019-01-28T23:22:55.395Z,14.67
2019-01-28T23:25:22.458Z,17.07
2019-01-28T23:27:49.498Z,18.70
2019-01-28T23:30:17.115Z,20.13
2019-01-28T23:32:44.345Z,19.83
2019-01-28T23:35:17.704Z,18.80
2019-01-28T23:37:46.120Z,17.07
2019-01-28T23:40:13.328Z,14.23
2019-01-28T23:42:40.917Z,19.33
2019-01-28T23:45:08.158Z,19.53
2019-01-28T23:47:35.222Z,22.40
2019-01-28T23:50:02.574Z,18.37
2019-01-28T23:52:31.493Z,18.47
2019-01-28T23:54:58.543Z,17.33
2019-01-28T23:57:25.601Z,17.97
2019-01-28T23:59:54.448Z,20.60
